University, Kentucky
Current Conditions -  °F | °C
As of 2:55 AM on Saturday 29 Nov 2014 (Local Time) from KCEY Reporting Station
Overcast Overcast  
Wind Chill: 39°   Ceiling: 3600
Heat Index: 45°   Visibility: 10mi
Dew Point: 28°   Wind: 10mph
Humidity: 53%   Direction: 190°S
Pressure: 30.03"   Gusts: NA
Location:  36.618°N, 88.2562°W
Report Text: KCEY 290855Z AUTO 19009KT 170V230 10SM OVC036 07/M02 A3003 RMK AO1
Loading
Personal Weather Stations






























Interactive Weather Map New forecast layout! Learn more

10-Day Weather Forecast

Advertisements
Track Severe Weather on mobile